Time;durP1;ratioP1;P1;durP2;ratioP2;P2;SDS_P1;SDS_P2;PMS_P1;PMS_P2;Temp;Humidity;BMP_temperature;BMP_pressure;BME280_temperature;BME280_humidity;BME280_pressure;Samples;Min_cycle;Max_cycle;Signal;HPM_P1;HPM_P2
2022/08/22 00:02:02;;;;;;;8.27;2.53;;;17.90;99.90;;;;;;4988084;28;20038;-61
2022/08/22 00:04:55;;;;;;;8.18;2.75;;;18.00;99.90;;;;;;4984184;28;20038;-62
2022/08/22 00:07:43;;;;;;;9.30;2.88;;;17.90;99.90;;;;;;4985202;28;20033;-61
2022/08/22 00:10:28;;;;;;;7.18;2.53;;;17.80;99.90;;;;;;4979721;28;20030;-61
2022/08/22 00:13:06;;;;;;;5.60;2.53;;;17.60;99.90;;;;;;4984151;28;20074;-61
2022/08/22 00:15:33;;;;;;;6.20;2.50;;;17.50;99.90;;;;;;4982944;28;20169;-61
2022/08/22 00:18:20;;;;;;;7.25;2.72;;;17.50;99.90;;;;;;4987643;28;20057;-61
2022/08/22 00:20:50;;;;;;;8.32;3.17;;;17.60;99.90;;;;;;4981104;28;20026;-61
2022/08/22 00:23:42;;;;;;;6.05;2.22;;;17.60;99.90;;;;;;4987709;28;20548;-62
2022/08/22 00:26:39;;;;;;;8.60;2.55;;;17.50;99.90;;;;;;4987191;28;20034;-61
2022/08/22 00:29:16;;;;;;;8.82;2.83;;;17.50;99.90;;;;;;4984241;28;20481;-61
2022/08/22 00:31:47;;;;;;;8.20;2.75;;;17.60;99.90;;;;;;4987995;28;20026;-61
2022/08/22 00:34:28;;;;;;;4.95;2.50;;;17.60;99.90;;;;;;4986474;28;20064;-61
2022/08/22 00:37:10;;;;;;;6.15;2.35;;;17.50;99.90;;;;;;4985745;28;20030;-61
2022/08/22 00:39:48;;;;;;;8.48;2.40;;;17.40;99.90;;;;;;4985786;28;20101;-61
2022/08/22 00:42:55;;;;;;;5.13;2.83;;;17.50;99.90;;;;;;4990349;28;20266;-61
2022/08/22 00:45:51;;;;;;;8.88;2.85;;;17.60;99.90;;;;;;4992340;28;20066;-62
2022/08/22 00:48:34;;;;;;;4.93;2.88;;;17.60;99.90;;;;;;4990701;28;20129;-61
2022/08/22 00:51:37;;;;;;;7.03;2.58;;;17.40;99.90;;;;;;4981400;28;20081;-61
2022/08/22 00:54:24;;;;;;;5.65;2.40;;;17.40;99.90;;;;;;5000825;28;20038;-61
2022/08/22 00:57:06;;;;;;;7.75;2.58;;;17.30;99.90;;;;;;4990922;28;20442;-61
2022/08/22 01:00:11;;;;;;;8.23;2.90;;;17.20;99.90;;;;;;4980789;28;20023;-62
2022/08/22 01:03:08;;;;;;;6.60;2.72;;;17.30;99.90;;;;;;4983565;28;20510;-61
2022/08/22 01:06:01;;;;;;;5.68;2.70;;;17.10;99.90;;;;;;4982848;28;20843;-61
2022/08/22 01:08:45;;;;;;;3.95;2.60;;;17.10;99.90;;;;;;4979067;28;20053;-61
2022/08/22 01:11:36;;;;;;;7.80;2.92;;;17.00;99.90;;;;;;4982146;28;20072;-61
2022/08/22 01:14:20;;;;;;;5.30;2.70;;;17.00;99.90;;;;;;4980458;28;20473;-61
2022/08/22 01:16:59;;;;;;;5.32;2.60;;;16.90;99.90;;;;;;4981729;28;20038;-61
2022/08/22 01:19:43;;;;;;;12.45;3.00;;;17.00;99.90;;;;;;4985195;28;20018;-61
2022/08/22 01:22:41;;;;;;;8.23;2.97;;;17.00;99.90;;;;;;4985367;28;20022;-61
2022/08/22 01:25:27;;;;;;;9.25;3.15;;;16.90;99.90;;;;;;4983506;28;20038;-61
2022/08/22 01:28:21;;;;;;;5.97;2.78;;;17.00;99.90;;;;;;4987264;28;20023;-61
2022/08/22 01:30:50;;;;;;;9.10;3.10;;;16.80;99.90;;;;;;4984885;28;20072;-60
2022/08/22 01:33:53;;;;;;;5.72;3.08;;;16.80;99.90;;;;;;4987820;28;20030;-61
2022/08/22 01:36:42;;;;;;;8.77;2.93;;;16.90;99.90;;;;;;4997976;28;20031;-61
2022/08/22 01:39:23;;;;;;;6.95;2.90;;;16.80;99.90;;;;;;4982377;28;20030;-61
2022/08/22 01:42:31;;;;;;;7.53;2.70;;;16.80;99.90;;;;;;4984177;28;20026;-61
2022/08/22 01:45:09;;;;;;;7.03;3.20;;;16.80;99.90;;;;;;4986236;28;20160;-61
2022/08/22 01:47:44;;;;;;;7.32;2.90;;;16.90;99.90;;;;;;4985630;28;20486;-61
2022/08/22 01:50:21;;;;;;;7.05;2.63;;;16.80;99.90;;;;;;4983564;28;20102;-61
2022/08/22 01:53:13;;;;;;;9.23;3.13;;;16.90;99.90;;;;;;4978445;28;20038;-61
2022/08/22 01:55:51;;;;;;;7.32;2.90;;;17.00;99.90;;;;;;4994595;28;20114;-61
2022/08/22 01:58:21;;;;;;;10.05;3.38;;;17.00;99.90;;;;;;4987749;28;20040;-61
2022/08/22 02:01:01;;;;;;;10.15;3.20;;;16.90;99.90;;;;;;4977284;28;20035;-61
2022/08/22 02:03:50;;;;;;;9.15;3.35;;;16.80;99.90;;;;;;4986489;28;20046;-61
2022/08/22 02:06:23;;;;;;;7.82;3.17;;;16.90;99.90;;;;;;4973565;28;20129;-61
2022/08/22 02:09:30;;;;;;;6.50;3.10;;;16.90;99.90;;;;;;4983670;28;20080;-61
2022/08/22 02:12:28;;;;;;;7.53;3.20;;;16.70;99.90;;;;;;4977804;28;20616;-61
2022/08/22 02:14:54;;;;;;;6.75;3.25;;;16.50;99.90;;;;;;4984592;28;20030;-61
2022/08/22 02:17:28;;;;;;;8.50;3.40;;;16.60;99.90;;;;;;4988922;28;20030;-61
2022/08/22 02:20:14;;;;;;;6.85;3.13;;;16.70;99.90;;;;;;4992368;28;20026;-61
2022/08/22 02:23:02;;;;;;;5.68;2.88;;;16.60;99.90;;;;;;4986316;28;20027;-60
2022/08/22 02:25:53;;;;;;;6.00;3.53;;;16.70;99.90;;;;;;4989042;28;20032;-61
2022/08/22 02:28:30;;;;;;;9.15;3.47;;;16.70;99.90;;;;;;4991827;28;20022;-61
2022/08/22 02:31:10;;;;;;;6.68;3.17;;;16.70;99.90;;;;;;4988435;28;20038;-61
2022/08/22 02:33:57;;;;;;;6.20;3.00;;;16.70;99.90;;;;;;4983499;28;20022;-61
2022/08/22 02:36:44;;;;;;;6.05;3.20;;;16.70;99.90;;;;;;4986108;28;20582;-61
2022/08/22 02:39:51;;;;;;;12.23;3.65;;;16.70;99.90;;;;;;4990847;28;20607;-61
2022/08/22 02:42:36;;;;;;;6.15;3.40;;;16.60;99.90;;;;;;5002071;28;20030;-61
2022/08/22 02:45:17;;;;;;;7.13;3.45;;;16.60;99.90;;;;;;4987125;28;20117;-61
2022/08/22 02:47:59;;;;;;;7.47;3.30;;;16.60;99.90;;;;;;4988851;28;20045;-61
2022/08/22 02:50:39;;;;;;;6.03;3.20;;;16.60;99.90;;;;;;4982813;28;20018;-61
2022/08/22 02:53:12;;;;;;;4.50;3.25;;;16.50;99.90;;;;;;4986663;28;20738;-61
2022/08/22 02:55:38;;;;;;;;;;;16.50;99.90;;;;;;4980600;28;20485;-61
2022/08/22 02:58:17;;;;;;;6.00;3.38;;;16.40;99.90;;;;;;4984897;28;19913;-61
2022/08/22 03:01:06;;;;;;;4.78;2.90;;;16.60;99.90;;;;;;4985097;28;20664;-61
2022/08/22 03:03:37;;;;;;;6.78;3.40;;;16.60;99.90;;;;;;4983328;28;20041;-61
2022/08/22 03:06:42;;;;;;;7.05;3.35;;;16.70;99.90;;;;;;4982726;28;20121;-61
2022/08/22 03:09:14;;;;;;;5.35;3.15;;;16.70;99.90;;;;;;4999604;28;20037;-61
2022/08/22 03:11:45;;;;;;;7.80;3.22;;;16.50;99.90;;;;;;4989148;28;20030;-61
2022/08/22 03:14:21;;;;;;;6.35;3.40;;;16.30;99.90;;;;;;4987492;28;20498;-61
2022/08/22 03:16:57;;;;;;;6.40;3.08;;;16.30;99.90;;;;;;4982171;28;20023;-61
2022/08/22 03:19:57;;;;;;;5.70;3.35;;;16.40;99.90;;;;;;4987365;28;20517;-61
2022/08/22 03:22:32;;;;;;;7.07;3.60;;;16.40;99.90;;;;;;4987446;28;20034;-61
2022/08/22 03:25:29;;;;;;;5.80;3.30;;;16.40;99.90;;;;;;4983591;28;20041;-61
2022/08/22 03:27:59;;;;;;;6.40;3.20;;;16.40;99.90;;;;;;4983639;28;20062;-61
2022/08/22 03:30:40;;;;;;;7.78;3.13;;;16.30;99.90;;;;;;4983666;28;20038;-61
2022/08/22 03:33:21;;;;;;;8.88;3.65;;;16.10;99.90;;;;;;4981280;28;20030;-61
2022/08/22 03:35:47;;;;;;;11.77;4.07;;;16.10;99.90;;;;;;4987032;28;20626;-61
2022/08/22 03:38:22;;;;;;;8.88;4.03;;;16.20;99.90;;;;;;4982691;28;20118;-61
2022/08/22 03:41:25;;;;;;;9.38;3.72;;;16.20;99.90;;;;;;4986102;28;20042;-60
2022/08/22 03:44:18;;;;;;;8.68;3.95;;;16.00;99.90;;;;;;4986737;28;20494;-61
2022/08/22 03:47:26;;;;;;;6.57;3.50;;;15.90;99.90;;;;;;4990458;28;20037;-60
2022/08/22 03:49:52;;;;;;;9.65;4.32;;;15.90;99.90;;;;;;4981503;28;20030;-61
2022/08/22 03:55:40;;;;;;;7.60;3.80;;;16.00;99.90;;;;;;4988108;28;20048;-61
2022/08/22 03:58:35;;;;;;;11.30;4.22;;;16.10;99.90;;;;;;4985565;28;20497;-61
2022/08/22 04:01:33;;;;;;;9.35;4.13;;;16.20;99.90;;;;;;4976544;28;20035;-61
2022/08/22 04:04:10;;;;;;;7.45;4.00;;;16.20;99.90;;;;;;4990670;28;20022;-61
2022/08/22 04:07:09;;;;;;;7.75;4.03;;;16.10;99.90;;;;;;4975992;28;20544;-61
2022/08/22 04:09:43;;;;;;;9.13;3.97;;;16.10;99.90;;;;;;4986455;28;20609;-61
2022/08/22 04:12:29;;;;;;;8.18;3.72;;;16.00;99.90;;;;;;4988131;28;20513;-60
2022/08/22 04:15:13;;;;;;;8.70;4.43;;;16.10;99.90;;;;;;4980415;28;20030;-61
2022/08/22 04:17:47;;;;;;;8.48;4.20;;;16.10;99.90;;;;;;4981252;28;20504;-61
2022/08/22 04:20:13;;;;;;;8.75;4.47;;;16.30;99.90;;;;;;4983157;28;20666;-61
2022/08/22 04:23:08;;;;;;;11.40;4.45;;;16.20;99.90;;;;;;4985801;28;20023;-61
2022/08/22 04:25:46;;;;;;;7.95;4.30;;;16.40;99.90;;;;;;4983643;28;20438;-60
2022/08/22 04:28:30;;;;;;;8.80;4.55;;;16.40;99.90;;;;;;4987061;28;20034;-61
2022/08/22 04:31:10;;;;;;;9.80;4.32;;;16.20;99.90;;;;;;4983070;28;20057;-61
2022/08/22 04:33:49;;;;;;;6.68;4.00;;;16.00;99.90;;;;;;4983659;28;20510;-61
2022/08/22 04:36:26;;;;;;;8.63;4.72;;;15.90;99.90;;;;;;4985287;28;20026;-61
2022/08/22 04:39:03;;;;;;;12.50;5.28;;;16.10;99.90;;;;;;4974521;28;20030;-61
2022/08/22 04:41:47;;;;;;;11.02;4.88;;;16.20;99.90;;;;;;4991923;28;20018;-61
2022/08/22 04:44:18;;;;;;;7.55;4.80;;;16.10;99.90;;;;;;4975825;28;20027;-61
2022/08/22 04:46:58;;;;;;;11.07;5.20;;;16.20;99.90;;;;;;4982151;28;20046;-61
2022/08/22 04:49:44;;;;;;;12.35;5.97;;;16.20;99.90;;;;;;4983304;28;20038;-61
2022/08/22 04:52:39;;;;;;;9.10;4.80;;;16.20;99.90;;;;;;4997277;28;20066;-61
2022/08/22 04:55:23;;;;;;;11.75;5.00;;;16.20;99.90;;;;;;4984281;28;20027;-61
2022/08/22 04:58:15;;;;;;;10.25;5.05;;;16.40;99.90;;;;;;4982577;28;20030;-61
2022/08/22 05:01:11;;;;;;;8.13;5.32;;;16.20;99.90;;;;;;4986372;28;20092;-61
2022/08/22 05:03:42;;;;;;;12.85;5.68;;;16.20;99.90;;;;;;4977548;28;20019;-61
2022/08/22 05:06:10;;;;;;;11.52;5.65;;;16.20;99.90;;;;;;4979894;28;20134;-61
2022/08/22 05:08:39;;;;;;;7.65;4.97;;;16.40;99.90;;;;;;4981793;28;20466;-61
2022/08/22 05:11:08;;;;;;;12.63;6.45;;;16.40;99.90;;;;;;4979560;28;20173;-61
2022/08/22 05:13:43;;;;;;;7.70;5.20;;;16.50;99.90;;;;;;4982635;28;20646;-61
2022/08/22 05:16:23;;;;;;;8.77;5.38;;;16.50;99.90;;;;;;4974606;28;20038;-61
2022/08/22 05:19:18;;;;;;;9.65;5.13;;;16.50;99.90;;;;;;4980577;28;20064;-61
2022/08/22 05:21:47;;;;;;;10.20;5.70;;;16.40;99.90;;;;;;4983760;28;20022;-62
2022/08/22 05:24:32;;;;;;;9.70;5.30;;;16.50;99.90;;;;;;4983925;28;20034;-60
2022/08/22 05:27:19;;;;;;;11.05;5.18;;;16.60;99.90;;;;;;4981155;28;20050;-61
2022/08/22 05:29:47;;;;;;;11.07;5.55;;;16.80;99.90;;;;;;4978652;28;20117;-61
2022/08/22 05:32:32;;;;;;;16.35;6.45;;;16.70;99.90;;;;;;4981425;28;20066;-61
2022/08/22 05:35:02;;;;;;;9.95;6.40;;;16.80;99.90;;;;;;4978595;28;20033;-61
2022/08/22 05:37:47;;;;;;;15.27;5.90;;;16.80;99.90;;;;;;4980692;28;20130;-61
2022/08/22 05:40:23;;;;;;;11.38;5.70;;;16.90;99.90;;;;;;4987656;28;20066;-61
2022/08/22 05:42:51;;;;;;;14.45;6.10;;;17.00;99.90;;;;;;4980729;28;20512;-61
2022/08/22 05:45:17;;;;;;;22.98;6.40;;;17.10;99.90;;;;;;4984521;28;20441;-61
2022/08/22 05:48:04;;;;;;;16.65;6.88;;;17.10;99.90;;;;;;4985968;28;20044;-61
2022/08/22 05:50:37;;;;;;;15.98;6.78;;;17.20;99.90;;;;;;4984859;28;20077;-61
2022/08/22 05:53:10;;;;;;;12.88;6.72;;;17.30;99.90;;;;;;4984851;28;20039;-61
2022/08/22 05:55:42;;;;;;;12.82;6.72;;;17.50;99.90;;;;;;4985066;28;20117;-61
2022/08/22 05:58:26;;;;;;;13.32;6.30;;;17.50;99.90;;;;;;4979390;28;20034;-61
2022/08/22 06:01:34;;;;;;;13.15;5.97;;;17.60;99.90;;;;;;4977359;28;20042;-62
2022/08/22 06:04:18;;;;;;;14.70;7.00;;;17.70;99.90;;;;;;4987454;28;20034;-61
2022/08/22 06:07:22;;;;;;;13.48;6.53;;;17.70;99.90;;;;;;4976647;28;20031;-61
2022/08/22 06:09:47;;;;;;;17.95;7.60;;;17.70;99.90;;;;;;4982359;28;20776;-61
2022/08/22 06:12:20;;;;;;;13.98;6.78;;;18.00;99.90;;;;;;4979886;28;20037;-61
2022/08/22 06:15:21;;;;;;;17.85;7.60;;;18.20;99.90;;;;;;4984995;28;20042;-61
2022/08/22 06:18:02;;;;;;;14.18;7.65;;;18.30;99.90;;;;;;4977766;28;20038;-61
2022/08/22 06:20:36;;;;;;;16.73;7.78;;;18.40;99.90;;;;;;4982438;28;20092;-61
2022/08/22 06:23:04;;;;;;;13.73;7.63;;;18.40;99.90;;;;;;4982835;28;20034;-61
2022/08/22 06:25:37;;;;;;;19.05;7.63;;;18.40;99.90;;;;;;4980848;28;20023;-61
2022/08/22 06:28:07;;;;;;;14.75;8.52;;;18.40;99.90;;;;;;4983066;28;20472;-61
2022/08/22 06:30:34;;;;;;;20.15;7.28;;;18.50;99.90;;;;;;4983749;28;20042;-61
2022/08/22 06:33:11;;;;;;;15.77;8.00;;;18.50;99.90;;;;;;4983794;28;20031;-61
2022/08/22 06:38:33;;;;;;;16.98;8.00;;;18.70;99.90;;;;;;4980081;28;20533;-61
2022/08/22 06:41:05;;;;;;;18.73;7.80;;;18.70;99.90;;;;;;4980099;28;20768;-62
2022/08/22 06:43:38;;;;;;;20.05;8.60;;;18.80;99.90;;;;;;4984402;28;20053;-61
2022/08/22 06:46:05;;;;;;;18.33;8.35;;;18.80;99.90;;;;;;4983691;28;20029;-61
2022/08/22 06:48:32;;;;;;;15.35;7.75;;;19.10;99.90;;;;;;4982090;28;20516;-61
2022/08/22 06:50:59;;;;;;;19.17;7.78;;;19.20;99.90;;;;;;4982257;28;20026;-62
2022/08/22 06:53:48;;;;;;;18.05;7.88;;;19.50;99.90;;;;;;4983712;28;20030;-62
2022/08/22 06:56:19;;;;;;;15.93;7.18;;;19.60;99.90;;;;;;4979051;28;20045;-62
2022/08/22 06:58:48;;;;;;;14.85;7.03;;;19.70;99.90;;;;;;4981119;28;20294;-62
2022/08/22 07:01:20;;;;;;;22.30;8.05;;;19.60;99.90;;;;;;4981170;28;20418;-62
2022/08/22 07:03:50;;;;;;;13.32;6.78;;;19.90;99.90;;;;;;4981794;28;20042;-62
2022/08/22 07:06:21;;;;;;;14.55;6.78;;;20.00;99.90;;;;;;4982606;28;20537;-62
2022/08/22 07:08:52;;;;;;;15.07;6.93;;;20.20;99.90;;;;;;4982460;28;20033;-61
2022/08/22 07:11:26;;;;;;;15.82;7.30;;;20.10;99.90;;;;;;4982424;28;20025;-62
2022/08/22 07:13:56;;;;;;;15.38;7.18;;;20.20;99.90;;;;;;4983083;28;20025;-62
2022/08/22 07:16:52;;;;;;;16.15;7.18;;;20.20;99.90;;;;;;4985329;28;20048;-62
2022/08/22 07:19:29;;;;;;;17.60;6.97;;;20.40;99.90;;;;;;4979846;28;20034;-62
2022/08/22 07:21:56;;;;;;;17.45;7.25;;;20.60;99.90;;;;;;4984385;28;20268;-62
2022/08/22 07:24:30;;;;;;;12.30;6.22;;;20.60;99.90;;;;;;4983417;28;20081;-62
2022/08/22 07:27:07;;;;;;;13.15;6.53;;;20.60;99.90;;;;;;4981603;28;20026;-62
2022/08/22 07:29:43;;;;;;;13.05;6.20;;;20.80;99.90;;;;;;4973666;28;20030;-62
2022/08/22 07:32:47;;;;;;;21.27;7.07;;;20.70;99.90;;;;;;4981181;28;20486;-62
2022/08/22 07:35:14;;;;;;;;;;;20.70;99.90;;;;;;4981900;28;20038;-62
2022/08/22 07:38:25;;;;;;;14.48;5.82;;;20.70;99.90;;;;;;4988731;28;20354;-63
2022/08/22 07:41:14;;;;;;;14.23;5.95;;;20.90;99.90;;;;;;4982729;28;20037;-62
2022/08/22 07:43:50;;;;;;;11.73;6.07;;;20.80;99.90;;;;;;4989913;28;20084;-62
2022/08/22 07:46:26;;;;;;;16.63;5.95;;;20.80;99.90;;;;;;4983510;28;20098;-62
2022/08/22 07:49:13;;;;;;;11.90;6.00;;;21.00;99.90;;;;;;4987196;28;20027;-63
2022/08/22 07:51:43;;;;;;;14.73;6.20;;;21.00;99.90;;;;;;4986705;28;20018;-63
2022/08/22 07:54:20;;;;;;;19.95;6.40;;;21.10;99.90;;;;;;4986348;28;20014;-63
2022/08/22 07:56:57;;;;;;;14.55;5.25;;;21.10;99.90;;;;;;4984796;28;20033;-63
2022/08/22 07:59:24;;;;;;;16.10;5.80;;;21.20;99.90;;;;;;4979048;28;20033;-63
2022/08/22 08:01:53;;;;;;;18.20;5.55;;;21.20;99.90;;;;;;4986565;28;20068;-63
2022/08/22 08:04:23;;;;;;;20.27;6.35;;;21.30;99.90;;;;;;4986734;28;20026;-62
2022/08/22 08:06:55;;;;;;;13.38;5.70;;;21.20;99.90;;;;;;4986199;28;20018;-63
2022/08/22 08:09:21;;;;;;;12.77;5.38;;;21.30;99.90;;;;;;4987731;28;20482;-63
2022/08/22 08:11:51;;;;;;;16.05;5.28;;;21.40;99.90;;;;;;4984912;28;20026;-63
2022/08/22 08:14:20;;;;;;;17.70;5.45;;;21.60;99.90;;;;;;4988010;28;20022;-62
2022/08/22 08:17:09;;;;;;;21.60;6.38;;;21.70;99.90;;;;;;4981055;28;20082;-63
2022/08/22 08:19:39;;;;;;;17.63;6.20;;;21.60;99.90;;;;;;4988882;28;20513;-63
2022/08/22 08:22:05;;;;;;;16.65;6.97;;;21.70;99.90;;;;;;4986738;28;20674;-63
2022/08/22 08:24:42;;;;;;;18.30;6.38;;;21.80;99.90;;;;;;4985021;28;20753;-62
2022/08/22 08:30:18;;;;;;;25.15;7.43;;;21.80;99.90;;;;;;4986568;28;20582;-63
2022/08/22 08:32:52;;;;;;;34.72;8.90;;;21.90;99.90;;;;;;4983931;28;20089;-63
2022/08/22 08:35:26;;;;;;;14.20;6.32;;;22.20;99.90;;;;;;4985626;28;20031;-63
2022/08/22 08:38:07;;;;;;;19.67;7.40;;;22.30;99.90;;;;;;4986183;28;20433;-63
2022/08/22 08:40:33;;;;;;;15.93;6.82;;;22.30;99.90;;;;;;4987358;28;20382;-63
2022/08/22 08:46:16;;;;;;;19.25;6.60;;;22.50;99.90;;;;;;4986048;28;20077;-63
2022/08/22 08:48:53;;;;;;;18.33;6.43;;;22.40;99.90;;;;;;4985559;28;20038;-62
2022/08/22 08:51:43;;;;;;;18.02;6.82;;;22.40;99.90;;;;;;4981277;28;20022;-62
2022/08/22 08:54:17;;;;;;;23.52;6.55;;;22.50;99.90;;;;;;4980698;28;20015;-62
2022/08/22 08:57:02;;;;;;;16.20;6.28;;;22.30;99.90;;;;;;4984298;28;20062;-63
2022/08/22 08:59:50;;;;;;;17.60;6.25;;;22.30;99.90;;;;;;4980802;28;20041;-63
2022/08/22 09:02:40;;;;;;;15.18;6.28;;;22.40;99.90;;;;;;4983045;28;20027;-62
2022/08/22 09:05:43;;;;;;;15.30;5.28;;;22.60;99.90;;;;;;4984343;28;20030;-63
2022/08/22 09:08:42;;;;;;;16.35;5.50;;;22.90;99.90;;;;;;4983650;28;20022;-63
2022/08/22 09:11:45;;;;;;;15.35;4.35;;;23.10;99.90;;;;;;4984837;28;20488;-63
2022/08/22 09:14:22;;;;;;;12.07;4.25;;;23.10;99.90;;;;;;4985313;28;20045;-62
2022/08/22 09:17:01;;;;;;;15.50;4.18;;;23.30;99.90;;;;;;4985146;28;20027;-63
2022/08/22 09:19:39;;;;;;;14.48;4.90;;;23.40;99.90;;;;;;4983022;28;20128;-63
2022/08/22 09:22:10;;;;;;;15.02;5.22;;;23.40;99.90;;;;;;4985929;28;20026;-62
2022/08/22 09:25:03;;;;;;;12.52;4.70;;;23.40;99.90;;;;;;4984368;28;20029;-63
2022/08/22 09:27:43;;;;;;;12.73;4.80;;;23.60;99.90;;;;;;4981015;28;20023;-63
2022/08/22 09:30:16;;;;;;;14.82;4.65;;;23.60;99.90;;;;;;4983732;28;21075;-63
2022/08/22 09:32:53;;;;;;;;;;;23.50;99.90;;;;;;4985877;28;20494;-63
2022/08/22 09:35:34;;;;;;;12.85;4.15;;;23.60;99.90;;;;;;4982129;28;19918;-62
2022/08/22 09:38:25;;;;;;;9.50;3.47;;;23.50;99.90;;;;;;4983822;28;20037;-63
2022/08/22 09:41:17;;;;;;;11.27;3.47;;;23.60;99.90;;;;;;4982671;28;20363;-63
2022/08/22 09:44:03;;;;;;;14.10;4.60;;;23.80;99.90;;;;;;4999613;28;20033;-63
2022/08/22 09:46:42;;;;;;;9.82;3.65;;;23.90;99.90;;;;;;4985546;28;20346;-63
2022/08/22 09:49:18;;;;;;;12.00;3.60;;;24.10;99.90;;;;;;4982527;28;20026;-63
2022/08/22 09:51:53;;;;;;;12.95;3.85;;;24.00;99.90;;;;;;4977310;28;20054;-63
2022/08/22 09:54:44;;;;;;;11.02;3.65;;;24.00;99.90;;;;;;4981541;28;20084;-63
2022/08/22 09:57:25;;;;;;;11.23;4.15;;;24.20;99.90;;;;;;4983521;28;20037;-63
2022/08/22 09:59:51;;;;;;;10.40;3.28;;;24.20;99.90;;;;;;4983209;28;20030;-63
2022/08/22 10:02:36;;;;;;;12.90;4.45;;;24.20;99.90;;;;;;4984367;28;20449;-63
2022/08/22 10:05:15;;;;;;;11.65;3.50;;;24.50;99.90;;;;;;4981662;28;20034;-63
2022/08/22 10:08:27;;;;;;;14.10;3.38;;;24.50;99.90;;;;;;4983543;28;20685;-64
2022/08/22 10:11:18;;;;;;;13.10;3.90;;;24.30;99.90;;;;;;4982728;28;20049;-63
2022/08/22 10:14:29;;;;;;;10.18;3.28;;;24.20;99.90;;;;;;4981953;28;20027;-64
2022/08/22 10:17:04;;;;;;;10.32;3.35;;;24.20;99.90;;;;;;4985618;28;20165;-64
2022/08/22 10:19:38;;;;;;;10.65;3.22;;;24.30;99.90;;;;;;4978697;28;20774;-64
2022/08/22 10:22:14;;;;;;;10.73;3.50;;;24.50;99.90;;;;;;4985240;28;20494;-64
2022/08/22 10:25:11;;;;;;;11.35;3.35;;;24.50;99.90;;;;;;4984890;28;20549;-63
2022/08/22 10:28:07;;;;;;;11.10;3.88;;;24.50;99.90;;;;;;4988652;28;20325;-64
2022/08/22 10:30:48;;;;;;;10.43;3.42;;;24.60;99.90;;;;;;4983252;28;20466;-64
2022/08/22 10:33:24;;;;;;;12.90;3.30;;;24.90;99.90;;;;;;4979111;28;20099;-64
2022/08/22 10:35:50;;;;;;;12.52;4.03;;;24.60;99.90;;;;;;4984512;28;20031;-64
2022/08/22 10:38:28;;;;;;;8.32;3.47;;;24.50;99.90;;;;;;4990717;28;20073;-64
2022/08/22 10:41:21;;;;;;;13.38;3.20;;;24.60;99.90;;;;;;4985583;28;20081;-64
2022/08/22 10:43:52;;;;;;;;;;;24.80;99.90;;;;;;4990977;28;20026;-64
2022/08/22 10:46:47;;;;;;;9.50;2.58;;;24.90;99.90;;;;;;5000733;28;19937;-64
2022/08/22 10:49:32;;;;;;;10.57;3.30;;;24.80;99.90;;;;;;4985139;28;20022;-64
2022/08/22 10:52:12;;;;;;;6.53;2.85;;;25.00;99.90;;;;;;4980896;28;20094;-64
2022/08/22 10:54:55;;;;;;;8.57;3.00;;;25.20;99.90;;;;;;4985253;28;20543;-64
2022/08/22 10:57:32;;;;;;;9.25;2.90;;;25.00;99.90;;;;;;4984789;28;20029;-64
2022/08/22 11:00:20;;;;;;;8.63;2.92;;;25.10;99.90;;;;;;4986364;28;20068;-64
2022/08/22 11:02:59;;;;;;;10.75;3.00;;;25.20;99.90;;;;;;4986861;28;20114;-64
2022/08/22 11:05:36;;;;;;;10.82;2.97;;;25.20;99.90;;;;;;5006478;28;20046;-64
2022/08/22 11:08:20;;;;;;;12.23;3.03;;;25.40;99.90;;;;;;4995879;28;20481;-64
2022/08/22 11:11:12;;;;;;;7.57;2.75;;;25.40;99.90;;;;;;4987134;28;20058;-65
2022/08/22 11:13:46;;;;;;;10.50;2.78;;;25.40;99.90;;;;;;4988657;28;20482;-64
2022/08/22 11:16:30;;;;;;;10.55;3.05;;;25.30;99.90;;;;;;4990016;28;20038;-65
2022/08/22 11:19:17;;;;;;;10.45;3.17;;;25.20;99.90;;;;;;4990167;28;20113;-65
2022/08/22 11:21:54;;;;;;;11.98;3.03;;;25.30;99.90;;;;;;4984923;28;20061;-64
2022/08/22 11:24:54;;;;;;;10.65;3.00;;;25.60;99.90;;;;;;4986890;28;20022;-64
2022/08/22 11:27:30;;;;;;;13.30;3.05;;;25.60;99.90;;;;;;4989256;28;20473;-64
2022/08/22 11:30:19;;;;;;;13.98;3.40;;;25.70;99.90;;;;;;4984695;28;20061;-64
2022/08/22 11:32:57;;;;;;;9.20;2.50;;;26.00;99.90;;;;;;4986866;28;20505;-64
2022/08/22 11:35:49;;;;;;;11.70;2.80;;;25.90;99.90;;;;;;4986372;28;20038;-64
2022/08/22 11:38:34;;;;;;;12.43;2.97;;;26.20;99.90;;;;;;4982841;28;20564;-64
2022/08/22 11:41:07;;;;;;;10.63;3.22;;;26.00;99.90;;;;;;4987984;28;20038;-64
2022/08/22 11:43:44;;;;;;;7.50;2.40;;;26.10;99.90;;;;;;4988843;28;20393;-64
2022/08/22 11:46:37;;;;;;;9.30;3.13;;;26.30;99.90;;;;;;4984094;28;20030;-64
2022/08/22 11:49:18;;;;;;;9.73;3.38;;;26.40;99.90;;;;;;4984919;28;20506;-64
2022/08/22 11:52:09;;;;;;;9.30;2.85;;;26.40;99.90;;;;;;4980315;28;20378;-64
2022/08/22 11:54:46;;;;;;;7.38;2.58;;;26.40;99.90;;;;;;4988229;28;20023;-64
2022/08/22 11:57:17;;;;;;;8.73;2.40;;;26.30;99.90;;;;;;4978895;28;20034;-64
2022/08/22 12:00:11;;;;;;;6.10;2.40;;;26.40;99.90;;;;;;4986298;28;20184;-64
2022/08/22 12:02:55;;;;;;;9.15;2.80;;;26.60;99.90;;;;;;4986818;28;20050;-64
2022/08/22 12:05:28;;;;;;;8.18;2.80;;;25.80;99.90;;;;;;5000539;28;20015;-64
2022/08/22 12:08:25;;;;;;;9.07;2.72;;;26.80;99.90;;;;;;4990552;28;20037;-64
2022/08/22 12:11:16;;;;;;;28.15;19.48;;;26.80;99.90;;;;;;4997487;28;20632;-64
2022/08/22 12:13:54;;;;;;;9.23;2.80;;;26.90;99.90;;;;;;4979704;28;20437;-64
2022/08/22 12:16:32;;;;;;;9.75;2.92;;;27.00;99.90;;;;;;4985293;28;20505;-64
2022/08/22 12:19:29;;;;;;;9.63;2.85;;;27.00;99.90;;;;;;4986442;28;20256;-64
2022/08/22 12:22:22;;;;;;;7.68;3.08;;;26.90;99.90;;;;;;4987902;28;20045;-63
2022/08/22 12:25:12;;;;;;;10.57;2.80;;;26.50;99.90;;;;;;4985586;28;20033;-64
2022/08/22 12:28:12;;;;;;;6.75;2.72;;;26.10;99.90;;;;;;5000610;28;20041;-64
2022/08/22 12:30:44;;;;;;;7.70;2.53;;;26.00;99.90;;;;;;5000113;28;20038;-64
2022/08/22 12:33:31;;;;;;;6.80;2.25;;;26.10;99.90;;;;;;4984103;28;20031;-64
2022/08/22 12:36:23;;;;;;;8.93;3.15;;;26.30;99.90;;;;;;4986772;28;20650;-64
2022/08/22 12:39:18;;;;;;;13.20;3.00;;;26.10;99.90;;;;;;4985732;28;20065;-63
2022/08/22 12:42:17;;;;;;;12.20;2.80;;;26.10;99.90;;;;;;4981018;28;20045;-63
2022/08/22 12:45:12;;;;;;;8.45;2.60;;;26.20;99.90;;;;;;4984307;28;20684;-64
2022/08/22 12:48:21;;;;;;;8.18;3.03;;;26.10;99.90;;;;;;4985807;28;20022;-64
2022/08/22 12:51:26;;;;;;;7.90;2.88;;;26.10;99.90;;;;;;4984354;28;20110;-64
2022/08/22 12:54:17;;;;;;;6.57;2.50;;;26.10;99.90;;;;;;4976384;28;20130;-64
2022/08/22 12:57:13;;;;;;;10.10;2.75;;;26.20;99.90;;;;;;4983514;28;20121;-65
2022/08/22 12:59:46;;;;;;;8.15;2.67;;;26.20;99.90;;;;;;4981764;28;20429;-65
2022/08/22 13:02:28;;;;;;;9.32;3.00;;;26.10;99.90;;;;;;4981312;28;20473;-64
2022/08/22 13:04:59;;;;;;;8.52;2.67;;;26.10;99.90;;;;;;4982363;28;20026;-64
2022/08/22 13:07:32;;;;;;;7.93;2.72;;;26.00;99.90;;;;;;4985530;28;20030;-64
2022/08/22 13:10:27;;;;;;;8.75;2.80;;;26.10;99.90;;;;;;4985772;28;20085;-64
2022/08/22 13:12:56;;;;;;;10.10;2.83;;;26.20;99.90;;;;;;4982571;28;20026;-64
2022/08/22 13:15:36;;;;;;;10.80;3.00;;;26.30;99.90;;;;;;4986165;28;20080;-65
2022/08/22 13:18:12;;;;;;;7.47;2.65;;;26.20;99.90;;;;;;4985162;28;20032;-64
2022/08/22 13:20:44;;;;;;;6.60;2.38;;;26.40;99.90;;;;;;4981005;28;20030;-64
2022/08/22 13:23:32;;;;;;;7.90;2.45;;;26.50;99.90;;;;;;4987176;28;20014;-64
2022/08/22 13:26:06;;;;;;;7.22;2.33;;;26.50;99.90;;;;;;4976321;28;20079;-64
2022/08/22 13:28:39;;;;;;;7.13;2.58;;;26.60;99.90;;;;;;4982097;28;20037;-63
2022/08/22 13:31:06;;;;;;;9.35;3.00;;;26.60;99.90;;;;;;4984263;28;20027;-65
2022/08/22 13:33:36;;;;;;;7.45;2.70;;;26.60;99.90;;;;;;4984223;28;20038;-63
2022/08/22 13:36:08;;;;;;;7.68;2.40;;;26.80;99.90;;;;;;4984524;28;20045;-63
2022/08/22 13:38:42;;;;;;;7.57;2.50;;;26.90;99.90;;;;;;4984861;28;20038;-63
2022/08/22 13:41:09;;;;;;;9.80;2.50;;;26.90;99.90;;;;;;4984054;28;20081;-63
2022/08/22 13:44:03;;;;;;;8.90;2.72;;;27.00;99.90;;;;;;4984371;28;20026;-64
2022/08/22 13:46:31;;;;;;;10.02;2.60;;;26.90;99.90;;;;;;4975973;28;20066;-63
2022/08/22 13:48:59;;;;;;;10.35;2.60;;;27.00;99.90;;;;;;4987621;28;20030;-63
2022/08/22 13:51:38;;;;;;;8.80;2.70;;;26.80;99.90;;;;;;4982452;28;20026;-63
2022/08/22 13:54:10;;;;;;;7.03;2.40;;;27.00;99.90;;;;;;4985652;28;20022;-63
2022/08/22 13:56:46;;;;;;;6.90;2.72;;;27.10;99.90;;;;;;4981691;28;20030;-63
2022/08/22 13:59:20;;;;;;;7.75;2.60;;;27.10;99.90;;;;;;4983870;28;20144;-63
2022/08/22 14:01:56;;;;;;;10.60;2.88;;;27.00;99.90;;;;;;4983675;28;20494;-63
2022/08/22 14:04:30;;;;;;;9.48;2.50;;;27.00;99.90;;;;;;4980407;28;20306;-63
2022/08/22 14:07:11;;;;;;;;;;;26.90;99.90;;;;;;4984789;28;20018;-63
2022/08/22 14:10:05;;;;;;;8.85;2.65;;;26.80;99.90;;;;;;4982495;28;19913;-63